Time;durP1;ratioP1;P1;durP2;ratioP2;P2;SDS_P1;SDS_P2;PMS_P1;PMS_P2;Temp;Humidity;BMP_temperature;BMP_pressure;BME280_temperature;BME280_humidity;BME280_pressure;Samples;Min_cycle;Max_cycle;Signal;HPM_P1;HPM_P2
2022/08/28 00:00:56;;;;;;;26.52;9.03;;;;;;;16.68;95.16;98879.44;1667208;85;21450;-68
2022/08/28 00:03:23;;;;;;;29.32;8.70;;;;;;;16.64;95.24;98871.42;1666994;86;21259;-69
2022/08/28 00:05:50;;;;;;;26.77;8.35;;;;;;;16.58;95.62;98873.66;1667116;86;21030;-68
2022/08/28 00:08:16;;;;;;;23.70;8.05;;;;;;;16.54;95.92;98871.27;1667042;86;20977;-68
2022/08/28 00:10:44;;;;;;;26.17;8.23;;;;;;;16.52;96.00;98871.85;1667071;86;20986;-68
2022/08/28 00:13:17;;;;;;;25.10;8.63;;;;;;;16.51;96.28;98872.80;1667093;86;20997;-68
2022/08/28 00:15:48;;;;;;;23.77;9.00;;;;;;;16.49;96.61;98869.45;1666988;85;21124;-68
2022/08/28 00:18:14;;;;;;;25.68;8.90;;;;;;;16.47;96.83;98866.58;1657252;85;20983;-68
2022/08/28 00:20:41;;;;;;;21.05;8.73;;;;;;;16.45;97.04;98862.75;1653550;86;21200;-68
2022/08/28 00:23:08;;;;;;;20.23;8.33;;;;;;;16.46;97.70;98865.74;1653665;85;21531;-68
2022/08/28 00:25:34;;;;;;;22.37;8.70;;;;;;;16.46;98.45;98859.18;1653563;86;21022;-68
2022/08/28 00:28:05;;;;;;;24.12;9.20;;;;;;;16.48;98.96;98861.69;1653436;86;20966;-68
2022/08/28 00:30:41;;;;;;;24.82;8.90;;;;;;;16.47;99.12;98870.52;1653514;86;21019;-68
2022/08/28 00:33:28;;;;;;;28.32;9.43;;;;;;;16.46;99.20;98862.28;1653430;86;21034;-68
2022/08/28 00:35:57;;;;;;;22.02;8.98;;;;;;;16.45;99.28;98865.37;1653448;86;21031;-68
2022/08/28 00:38:25;;;;;;;21.00;8.50;;;;;;;16.43;99.44;98865.13;1653471;86;21470;-68
2022/08/28 00:40:55;;;;;;;18.40;8.25;;;;;;;16.43;99.42;98869.91;1653453;86;21170;-68
2022/08/28 00:43:39;;;;;;;19.67;8.18;;;;;;;16.41;99.23;98865.72;1653370;86;20975;-69
2022/08/28 00:46:12;;;;;;;26.80;8.18;;;;;;;16.40;98.82;98875.38;1652792;86;20958;-68
2022/08/28 00:48:39;;;;;;;21.15;7.70;;;;;;;16.37;98.52;98867.77;1653463;86;21026;-68
2022/08/28 00:54:10;;;;;;;20.25;8.23;;;;;;;16.28;98.00;98873.68;1653528;86;21155;-68
2022/08/28 00:56:39;;;;;;;23.07;7.72;;;;;;;16.23;97.93;98873.65;1653324;86;21034;-68
2022/08/28 00:59:10;;;;;;;22.30;7.53;;;;;;;16.19;97.88;98875.66;1653445;86;21015;-68
2022/08/28 01:01:37;;;;;;;22.58;6.92;;;;;;;16.15;97.67;98863.27;1653607;86;21003;-68
2022/08/28 01:04:05;;;;;;;19.95;8.53;;;;;;;16.14;98.08;98865.52;1653678;86;20995;-68
2022/08/28 01:06:33;;;;;;;24.82;8.78;;;;;;;16.15;98.88;98867.67;1653426;86;22107;-68
2022/08/28 01:08:59;;;;;;;35.75;9.28;;;;;;;16.14;99.24;98869.94;1653348;86;21022;-69
2022/08/28 01:11:27;;;;;;;22.20;8.10;;;;;;;16.13;99.50;98868.27;1653487;86;20983;-69
2022/08/28 01:13:56;;;;;;;23.70;7.92;;;;;;;16.13;99.95;98864.33;1653435;86;20983;-70
2022/08/28 01:16:22;;;;;;;17.37;7.55;;;;;;;16.13;99.94;98863.85;1653403;86;21427;-68
2022/08/28 01:18:49;;;;;;;20.30;7.53;;;;;;;16.13;100.00;98861.70;1630026;85;21268;-69
2022/08/28 01:21:22;;;;;;;19.90;6.80;;;;;;;16.12;99.38;98867.89;1629251;86;20971;-69
2022/08/28 01:24:08;;;;;;;;;;;;;;;16.08;98.76;98856.78;1657554;85;21090;-67
2022/08/28 01:26:36;;;;;;;20.88;8.43;;;;;;;16.04;98.48;98856.64;1655144;86;20177;-68
2022/08/28 01:29:03;;;;;;;18.65;7.78;;;;;;;15.98;98.44;98858.90;1655096;86;20991;-68
2022/08/28 01:31:30;;;;;;;27.82;7.90;;;;;;;15.92;98.70;98860.17;1655117;86;21768;-68
2022/08/28 01:33:58;;;;;;;23.02;7.90;;;;;;;15.89;99.71;98853.00;1630459;86;21023;-68
2022/08/28 01:36:25;;;;;;;21.77;8.25;;;;;;;15.86;100.00;98852.74;1655151;86;21012;-68
2022/08/28 01:38:59;;;;;;;18.55;7.75;;;;;;;15.83;100.00;98851.18;1655167;86;20986;-68
2022/08/28 01:41:25;;;;;;;20.45;7.78;;;;;;;15.82;100.00;98850.81;1655065;86;20979;-68
2022/08/28 01:43:53;;;;;;;21.90;6.70;;;;;;;15.82;100.00;98852.59;1655028;86;21550;-71
2022/08/28 01:46:19;;;;;;;18.50;7.00;;;;;;;15.83;100.00;98848.55;1655107;86;21078;-68
2022/08/28 01:48:46;;;;;;;19.92;7.62;;;;;;;15.82;100.00;98846.88;1655085;86;20990;-68
2022/08/28 01:51:13;;;;;;;19.27;7.47;;;;;;;15.83;100.00;98838.54;1630367;86;21043;-68
2022/08/28 01:53:41;;;;;;;19.00;7.45;;;;;;;15.82;100.00;98846.05;1655079;86;21016;-68
2022/08/28 01:56:12;;;;;;;15.78;6.45;;;;;;;15.77;100.00;98841.16;1655036;86;21180;-68
2022/08/28 01:58:39;;;;;;;20.95;7.15;;;;;;;15.77;100.00;98841.16;1655028;86;21021;-69
2022/08/28 02:01:11;;;;;;;17.23;6.97;;;;;;;15.75;100.00;98840.43;1655060;86;21092;-68
2022/08/28 02:03:39;;;;;;;16.17;6.90;;;;;;;15.69;100.00;98829.54;1655180;86;21018;-68
2022/08/28 02:06:08;;;;;;;20.20;7.40;;;;;;;15.67;100.00;98832.74;1655167;86;21558;-68
2022/08/28 02:08:36;;;;;;;19.30;7.50;;;;;;;15.62;99.80;98829.13;1655146;86;21106;-69
2022/08/28 02:11:05;;;;;;;15.65;6.70;;;;;;;15.58;100.00;98829.48;1655055;86;21010;-69
2022/08/28 02:13:32;;;;;;;16.00;6.20;;;;;;;15.58;100.00;98829.48;1655022;86;21023;-69
2022/08/28 02:15:59;;;;;;;20.60;7.00;;;;;;;15.58;100.00;98830.80;1655330;86;21063;-69
2022/08/28 02:18:26;;;;;;;22.17;6.53;;;;;;;15.56;100.00;98833.53;1660968;85;21023;-69
2022/08/28 02:20:53;;;;;;;13.98;6.03;;;;;;;15.50;100.00;98834.77;1667066;86;21230;-68
2022/08/28 02:23:20;;;;;;;18.75;7.12;;;;;;;15.50;100.00;98833.92;1666925;84;21022;-69
2022/08/28 02:25:47;;;;;;;18.60;6.78;;;;;;;15.47;100.00;98837.60;1667101;86;20986;-69
2022/08/28 02:28:13;;;;;;;18.17;6.67;;;;;;;15.44;100.00;98840.91;1667041;86;21065;-68
2022/08/28 02:30:40;;;;;;;17.65;6.12;;;;;;;15.41;100.00;98841.95;1667152;86;21026;-69
2022/08/28 02:33:07;;;;;;;23.57;8.08;;;;;;;15.38;100.00;98843.52;1667059;86;21447;-69
2022/08/28 02:35:33;;;;;;;18.30;7.12;;;;;;;15.34;100.00;98838.59;1666964;85;20970;-69
2022/08/28 02:38:00;;;;;;;28.85;7.60;;;;;;;15.34;100.00;98847.30;1667000;85;21013;-68
2022/08/28 02:40:28;;;;;;;19.15;7.47;;;;;;;15.34;100.00;98846.45;1667026;86;20985;-68
2022/08/28 02:42:54;;;;;;;21.20;7.80;;;;;;;15.33;100.00;98850.86;1667043;85;20987;-68
2022/08/28 02:45:21;;;;;;;25.72;9.50;;;;;;;15.32;100.00;98843.94;1667117;85;21261;-69
2022/08/28 02:47:50;;;;;;;21.07;8.98;;;;;;;15.32;100.00;98846.56;1667264;86;21057;-69
2022/08/28 02:50:19;;;;;;;32.53;8.13;;;;;;;15.33;100.00;98837.75;1638974;86;21018;-69
2022/08/28 02:52:45;;;;;;;17.42;6.97;;;;;;;15.33;100.00;98837.75;1667027;86;21687;-69
2022/08/28 02:55:14;;;;;;;15.25;6.58;;;;;;;15.32;100.00;98836.55;1667120;86;21088;-69
2022/08/28 02:57:41;;;;;;;20.72;7.55;;;;;;;15.27;100.00;98842.11;1638544;86;21202;-69
2022/08/28 03:00:14;;;;;;;21.45;8.10;;;;;;;15.27;100.00;98842.11;1666954;86;21069;-69
2022/08/28 03:02:41;;;;;;;;;;;;;;;15.28;100.00;98843.78;1669633;85;21073;-68
2022/08/28 03:05:08;;;;;;;28.57;8.15;;;;;;;15.27;100.00;98849.13;1667075;86;20217;-69
2022/08/28 03:07:35;;;;;;;18.67;6.75;;;;;;;15.24;100.00;98846.72;1638043;86;20989;-69
2022/08/28 03:10:02;;;;;;;16.82;6.72;;;;;;;15.23;100.00;98850.28;1667101;86;21155;-68
2022/08/28 03:12:28;;;;;;;18.70;6.95;;;;;;;15.20;100.00;98846.56;1666937;85;21029;-68
2022/08/28 03:14:56;;;;;;;19.60;7.25;;;;;;;15.16;100.00;98848.11;1667113;86;20978;-69
2022/08/28 03:17:24;;;;;;;24.12;8.35;;;;;;;15.14;100.00;98847.38;1666965;85;21525;-69
2022/08/28 03:19:51;;;;;;;20.82;7.03;;;;;;;15.16;100.00;98853.36;1629347;86;21538;-69
2022/08/28 03:23:24;;;;;;;24.82;9.35;;;;;;;15.17;100.00;98851.58;1653419;85;21181;-69
2022/08/28 03:24:49;;;;;;;16.32;7.12;;;;;;;15.18;100.00;98848.02;1649653;86;21071;-69
2022/08/28 03:27:16;;;;;;;21.97;7.67;;;;;;;15.19;100.00;98845.72;1653396;86;20982;-69
2022/08/28 03:29:42;;;;;;;21.52;7.45;;;;;;;15.21;100.00;98846.93;1653351;86;21462;-69
2022/08/28 03:32:09;;;;;;;15.55;6.37;;;;;;;15.21;100.00;98852.17;1653321;86;21038;-69
2022/08/28 03:34:37;;;;;;;15.60;6.47;;;;;;;15.21;100.00;98854.32;1653502;86;21804;-68
2022/08/28 03:37:04;;;;;;;17.77;6.45;;;;;;;15.23;100.00;98862.07;1653270;86;20986;-68
2022/08/28 03:39:30;;;;;;;18.50;7.47;;;;;;;15.27;100.00;98856.98;1653311;86;21488;-69
2022/08/28 03:41:57;;;;;;;19.52;6.65;;;;;;;15.37;100.00;98865.42;1653362;86;20962;-69
2022/08/28 03:44:24;;;;;;;22.48;7.45;;;;;;;15.51;100.00;98862.65;1653369;86;20991;-69
2022/08/28 03:46:51;;;;;;;18.60;6.65;;;;;;;15.81;99.37;98868.80;1653330;86;21753;-69
2022/08/28 03:49:17;;;;;;;23.62;5.70;;;;;;;15.81;99.37;98868.80;1653333;86;21097;-69
2022/08/28 03:51:44;;;;;;;12.35;5.92;;;;;;;15.94;98.50;98874.48;1653450;86;20975;-68
2022/08/28 03:54:10;;;;;;;24.07;6.90;;;;;;;16.05;97.34;98868.81;1653414;86;21063;-68
2022/08/28 03:56:37;;;;;;;25.45;7.45;;;;;;;16.18;96.85;98880.58;1653497;86;20979;-68
2022/08/28 03:59:04;;;;;;;17.95;6.00;;;;;;;16.32;96.06;98869.05;1607418;86;21889;-69
2022/08/28 04:01:32;;;;;;;19.55;6.72;;;;;;;16.53;95.59;98872.22;1653414;86;21133;-69
2022/08/28 04:03:58;;;;;;;14.65;6.40;;;;;;;16.76;94.86;98867.89;1627677;86;21090;-69
2022/08/28 04:06:26;;;;;;;17.20;6.35;;;;;;;17.03;93.87;98868.02;1653526;86;20990;-69
2022/08/28 04:08:54;;;;;;;15.38;6.75;;;;;;;17.29;92.66;98864.67;1653507;86;21014;-69
2022/08/28 04:11:21;;;;;;;18.60;6.20;;;;;;;17.56;91.16;98861.19;1653476;86;21747;-69
2022/08/28 04:13:47;;;;;;;16.87;6.72;;;;;;;17.84;90.04;98860.66;1653386;86;21061;-69
2022/08/28 04:16:18;;;;;;;17.25;6.35;;;;;;;18.12;88.60;98852.69;1653613;86;21027;-69
2022/08/28 04:18:46;;;;;;;15.70;5.83;;;;;;;18.42;87.19;98853.73;1658071;86;21021;-69
2022/08/28 04:21:17;;;;;;;16.10;6.22;;;;;;;18.70;85.96;98850.97;1667155;86;20962;-69
2022/08/28 04:23:46;;;;;;;18.27;6.03;;;;;;;18.97;84.24;98847.31;1638810;86;20966;-68
2022/08/28 04:26:18;;;;;;;19.15;7.37;;;;;;;19.24;82.63;98850.19;1667123;86;20954;-69
2022/08/28 04:28:45;;;;;;;20.23;6.30;;;;;;;19.51;80.96;98848.30;1667392;86;21029;-69
2022/08/28 04:31:11;;;;;;;17.48;7.33;;;;;;;19.77;79.08;98849.97;1667204;86;21050;-69
2022/08/28 04:33:38;;;;;;;19.87;7.55;;;;;;;20.02;77.73;98849.90;1667178;85;21072;-69
2022/08/28 04:36:11;;;;;;;14.90;6.62;;;;;;;20.25;76.75;98843.37;1667115;86;21670;-69
2022/08/28 04:38:38;;;;;;;;;;;;;;;20.52;75.76;98844.02;1669585;86;21100;-68
2022/08/28 04:41:06;;;;;;;30.72;11.88;;;;;;;20.84;74.43;98842.81;1667202;85;20142;-69
2022/08/28 04:43:32;;;;;;;24.67;13.58;;;;;;;21.13;73.76;98848.86;1667486;86;21030;-69
2022/08/28 04:46:09;;;;;;;32.85;14.43;;;;;;;21.43;72.64;98843.79;1667265;85;21073;-69
2022/08/28 04:48:35;;;;;;;28.12;15.15;;;;;;;21.71;71.31;98847.27;1667089;85;21362;-68
2022/08/28 04:51:05;;;;;;;26.73;10.82;;;;;;;21.97;69.79;98848.20;1667097;85;21009;-68
2022/08/28 04:53:31;;;;;;;20.25;8.33;;;;;;;22.18;68.67;98847.10;1667054;86;21030;-69
2022/08/28 04:55:59;;;;;;;18.80;7.30;;;;;;;22.42;67.94;98849.94;1667028;85;21088;-69
2022/08/28 04:58:26;;;;;;;18.37;8.18;;;;;;;22.63;67.05;98841.64;1667171;86;20978;-69
2022/08/28 05:00:52;;;;;;;37.23;9.88;;;;;;;22.81;66.54;98838.48;1667030;86;21136;-68
2022/08/28 05:03:19;;;;;;;26.02;10.72;;;;;;;22.99;65.48;98847.70;1666973;86;21513;-68
2022/08/28 05:05:49;;;;;;;33.25;11.55;;;;;;;23.13;64.99;98846.30;1667051;86;21026;-68
2022/08/28 05:08:18;;;;;;;43.02;11.68;;;;;;;23.28;64.15;98850.01;1667037;86;21025;-68
2022/08/28 05:10:45;;;;;;;31.85;10.28;;;;;;;23.32;63.30;98849.54;1667155;86;20982;-68
2022/08/28 05:13:15;;;;;;;20.25;8.90;;;;;;;23.24;63.43;98844.68;1667076;86;21576;-68
2022/08/28 05:15:43;;;;;;;29.10;8.90;;;;;;;23.16;63.85;98843.33;1667018;86;21014;-68
2022/08/28 05:18:16;;;;;;;31.57;10.10;;;;;;;23.12;64.19;98840.16;1667014;86;21001;-68
2022/08/28 05:20:44;;;;;;;29.48;9.78;;;;;;;23.10;63.97;98837.33;1666203;85;21025;-69
2022/08/28 05:23:11;;;;;;;19.27;8.75;;;;;;;23.10;64.34;98836.83;1667045;84;21021;-68
2022/08/28 05:25:41;;;;;;;24.12;9.08;;;;;;;23.13;64.84;98833.87;1667126;86;21108;-69
2022/08/28 05:28:09;;;;;;;24.67;9.08;;;;;;;23.15;65.40;98837.69;1667051;86;21549;-68
2022/08/28 05:30:36;;;;;;;30.52;9.83;;;;;;;23.11;65.41;98834.52;1667018;86;20986;-68
2022/08/28 05:33:04;;;;;;;21.52;8.70;;;;;;;23.05;66.01;98838.28;1667077;86;20998;-69
2022/08/28 05:35:37;;;;;;;24.00;8.78;;;;;;;23.01;66.74;98837.77;1667039;86;21029;-68
2022/08/28 05:38:04;;;;;;;25.65;7.62;;;;;;;23.01;66.64;98837.77;1667251;86;21252;-68
2022/08/28 05:40:32;;;;;;;26.82;9.60;;;;;;;23.00;65.91;98839.58;1666941;86;38610;-68
2022/08/28 05:42:59;;;;;;;22.25;8.78;;;;;;;22.99;66.25;98845.88;1667144;86;21077;-68
2022/08/28 05:45:25;;;;;;;28.57;8.88;;;;;;;22.95;66.49;98843.22;1667039;86;21045;-68
2022/08/28 05:47:52;;;;;;;30.80;8.85;;;;;;;22.91;66.74;98842.36;1667121;86;21118;-68
2022/08/28 05:50:19;;;;;;;23.47;8.28;;;;;;;22.88;66.06;98844.00;1667038;86;21099;-68
2022/08/28 05:52:46;;;;;;;20.82;7.90;;;;;;;22.82;66.16;98846.77;1666988;86;20962;-68
2022/08/28 05:55:13;;;;;;;26.15;8.55;;;;;;;22.80;66.05;98846.59;1667140;86;20986;-68
2022/08/28 05:57:40;;;;;;;31.02;7.78;;;;;;;22.76;65.60;98844.73;1667100;85;21509;-68
2022/08/28 06:00:12;;;;;;;24.80;8.08;;;;;;;22.71;65.42;98848.83;1667316;85;20990;-69
2022/08/28 06:02:40;;;;;;;30.00;7.95;;;;;;;22.67;65.86;98841.19;1667176;86;21298;-68
2022/08/28 06:05:09;;;;;;;32.60;8.63;;;;;;;22.65;65.87;98843.65;1666992;86;21066;-68
2022/08/28 06:07:36;;;;;;;28.50;7.37;;;;;;;22.64;66.14;98852.59;1667202;86;21506;-68
2022/08/28 06:10:04;;;;;;;34.13;8.60;;;;;;;22.67;66.25;98853.61;1667113;86;20990;-68
2022/08/28 06:12:32;;;;;;;31.10;9.75;;;;;;;22.74;65.97;98861.28;1667114;85;21073;-69
2022/08/28 06:14:59;;;;;;;31.73;7.97;;;;;;;22.83;65.87;98862.19;1667015;86;21557;-69
2022/08/28 06:17:25;;;;;;;28.70;7.00;;;;;;;22.92;65.25;98868.73;1666970;86;21462;-68
2022/08/28 06:19:52;;;;;;;24.50;7.22;;;;;;;22.97;62.72;98858.48;1659669;85;21026;-68
2022/08/28 06:22:19;;;;;;;27.35;6.90;;;;;;;23.01;61.08;98861.63;1653258;85;21063;-69
2022/08/28 06:24:46;;;;;;;31.17;7.45;;;;;;;23.05;60.63;98866.14;1653394;86;21527;-68
2022/08/28 06:27:12;;;;;;;28.50;7.20;;;;;;;23.07;59.62;98864.16;1653330;86;21235;-68
2022/08/28 06:29:39;;;;;;;29.55;7.65;;;;;;;23.09;58.71;98864.84;1653367;86;20987;-68
2022/08/28 06:32:06;;;;;;;25.55;7.40;;;;;;;23.08;57.87;98866.66;1653422;86;21463;-68
2022/08/28 06:34:32;;;;;;;26.50;7.53;;;;;;;23.08;57.42;98865.33;1653362;86;21066;-68
2022/08/28 06:36:59;;;;;;;26.52;8.38;;;;;;;23.10;57.39;98867.83;1653364;86;21526;-68
2022/08/28 06:39:25;;;;;;;24.18;7.67;;;;;;;23.13;57.21;98863.05;1653332;86;21346;-68
2022/08/28 06:41:52;;;;;;;25.57;7.72;;;;;;;23.13;57.33;98867.52;1653295;86;21018;-69
2022/08/28 06:44:20;;;;;;;16.35;7.10;;;;;;;23.14;56.71;98868.69;1653409;86;21030;-68
2022/08/28 06:46:48;;;;;;;23.18;7.10;;;;;;;23.14;57.21;98862.55;1628656;86;21007;-68
2022/08/28 06:49:14;;;;;;;25.50;7.78;;;;;;;23.18;57.97;98863.91;1653373;86;20978;-68
2022/08/28 06:51:41;;;;;;;22.90;7.35;;;;;;;23.25;57.90;98859.61;1653413;86;21555;-68
2022/08/28 06:54:08;;;;;;;19.45;8.40;;;;;;;23.35;57.54;98860.34;1653265;86;21624;-69
2022/08/28 06:56:35;;;;;;;26.87;7.37;;;;;;;23.41;56.76;98863.66;1628626;86;21069;-69
2022/08/28 06:59:02;;;;;;;33.70;8.50;;;;;;;23.42;57.21;98860.02;1653470;86;21062;-68
2022/08/28 07:01:32;;;;;;;29.35;8.05;;;;;;;23.44;57.52;98859.36;1653388;86;21027;-68
2022/08/28 07:04:07;;;;;;;22.73;7.80;;;;;;;23.47;57.47;98854.23;1627952;86;21154;-68
2022/08/28 07:06:37;;;;;;;22.77;7.53;;;;;;;23.51;57.27;98863.05;1653266;86;21451;-68
2022/08/28 07:09:06;;;;;;;27.85;8.28;;;;;;;23.55;57.65;98865.76;1653322;86;21051;-68
2022/08/28 07:11:34;;;;;;;28.38;7.78;;;;;;;23.62;57.69;98870.73;1653332;86;20998;-68
2022/08/28 07:14:01;;;;;;;23.85;9.18;;;;;;;23.69;56.90;98864.30;1653343;86;21011;-68
2022/08/28 07:16:32;;;;;;;19.40;8.30;;;;;;;23.74;57.09;98865.98;1653387;86;21151;-68
2022/08/28 07:18:58;;;;;;;26.70;8.20;;;;;;;23.81;56.60;98868.80;1653490;85;21081;-68
2022/08/28 07:21:26;;;;;;;30.72;8.08;;;;;;;23.89;56.61;98865.68;1667080;86;21018;-69
2022/08/28 07:23:52;;;;;;;32.63;9.35;;;;;;;23.99;56.37;98869.50;1667078;84;20986;-69
2022/08/28 07:26:22;;;;;;;23.92;9.08;;;;;;;24.07;56.16;98864.22;1616497;86;21051;-69
2022/08/28 07:28:53;;;;;;;24.80;7.40;;;;;;;24.15;56.13;98859.42;1667197;86;21150;-69
2022/08/28 07:31:22;;;;;;;28.15;7.45;;;;;;;24.20;56.12;98860.56;1638047;86;21038;-68
2022/08/28 07:33:49;;;;;;;25.25;7.85;;;;;;;24.29;55.01;98857.47;1667120;86;21142;-69
2022/08/28 07:36:19;;;;;;;28.32;7.55;;;;;;;24.39;54.60;98851.47;1667228;86;21146;-68
2022/08/28 07:38:46;;;;;;;28.98;8.40;;;;;;;24.50;54.56;98855.14;1667192;85;20978;-69
2022/08/28 07:41:22;;;;;;;26.15;7.70;;;;;;;24.59;54.12;98843.98;1638069;86;21101;-69
2022/08/28 07:46:36;;;;;;;22.82;7.75;;;;;;;24.79;53.68;98841.80;1667367;86;21048;-67
2022/08/28 07:49:04;;;;;;;24.65;7.20;;;;;;;24.90;53.75;98841.45;1667549;85;20994;-70
2022/08/28 07:51:31;;;;;;;26.23;7.25;;;;;;;24.98;53.72;98844.14;1667187;86;21104;-70
2022/08/28 07:53:57;;;;;;;22.13;7.03;;;;;;;25.08;52.38;98839.44;1667093;86;21777;-67
2022/08/28 07:56:26;;;;;;;27.98;7.78;;;;;;;25.13;52.12;98841.09;1667329;86;21022;-70
2022/08/28 07:58:52;;;;;;;29.55;8.58;;;;;;;25.16;52.61;98843.92;1667065;85;21058;-70
2022/08/28 08:01:19;;;;;;;21.48;7.80;;;;;;;25.25;52.99;98843.70;1667106;86;20993;-68
2022/08/28 08:03:46;;;;;;;23.92;7.20;;;;;;;25.34;52.83;98840.52;1667134;86;21046;-68
2022/08/28 08:06:15;;;;;;;25.97;8.15;;;;;;;25.39;52.36;98833.66;1667110;86;21171;-68
2022/08/28 08:08:42;;;;;;;24.35;8.38;;;;;;;25.43;52.21;98835.48;1667051;86;21037;-68
2022/08/28 08:11:13;;;;;;;32.67;7.87;;;;;;;25.50;52.29;98839.11;1667093;86;21022;-68
2022/08/28 08:13:40;;;;;;;21.57;6.40;;;;;;;25.61;52.08;98840.55;1638295;86;21065;-68
2022/08/28 08:16:21;;;;;;;24.67;7.70;;;;;;;25.71;51.31;98833.22;1667597;86;21017;-68
2022/08/28 08:18:48;;;;;;;38.25;8.45;;;;;;;25.81;51.07;98831.64;1667257;86;21789;-68
2022/08/28 08:21:18;;;;;;;24.27;7.25;;;;;;;25.91;50.89;98833.09;1638142;86;21025;-68
2022/08/28 08:23:45;;;;;;;31.07;7.35;;;;;;;26.02;50.64;98827.84;1667093;84;21446;-69
2022/08/28 08:26:16;;;;;;;28.70;8.08;;;;;;;26.12;50.04;98836.44;1667159;85;21081;-69
2022/08/28 08:28:43;;;;;;;27.10;7.17;;;;;;;26.17;49.48;98836.75;1667137;86;21022;-69
2022/08/28 08:31:18;;;;;;;27.25;7.35;;;;;;;26.26;49.40;98836.16;1667328;86;22162;-69
2022/08/28 08:33:49;;;;;;;21.12;7.70;;;;;;;26.35;48.92;98830.62;1667025;86;21475;-69
2022/08/28 08:36:18;;;;;;;26.45;7.42;;;;;;;26.46;47.97;98832.53;1667171;86;21022;-69
2022/08/28 08:38:45;;;;;;;23.30;7.55;;;;;;;26.53;47.87;98832.14;1667169;86;21056;-69
2022/08/28 08:41:50;;;;;;;48.78;33.98;;;;;;;26.60;47.86;98832.55;1667471;86;21074;-69
2022/08/28 08:44:37;;;;;;;35.45;10.35;;;;;;;26.72;47.96;98827.63;1667287;86;21995;-68
2022/08/28 08:47:29;;;;;;;24.10;7.40;;;;;;;26.88;47.57;98829.29;1667362;86;21479;-68
2022/08/28 08:50:01;;;;;;;32.28;7.00;;;;;;;27.00;46.60;98826.00;1667221;85;21018;-68
2022/08/28 08:52:45;;;;;;;28.83;6.35;;;;;;;27.14;45.76;98827.55;1667145;86;21049;-69
2022/08/28 08:55:30;;;;;;;18.27;6.20;;;;;;;27.23;44.81;98823.74;1667179;85;21030;-69
2022/08/28 08:58:07;;;;;;;25.27;7.25;;;;;;;27.26;44.65;98824.20;1667174;86;21161;-68
2022/08/28 09:00:54;;;;;;;29.67;7.50;;;;;;;27.32;45.24;98823.47;1667047;86;20978;-68
2022/08/28 09:03:26;;;;;;;22.00;6.08;;;;;;;27.44;45.05;98822.48;1665885;86;21001;-68
2022/08/28 09:06:00;;;;;;;21.70;6.37;;;;;;;27.53;43.77;98828.05;1662422;86;21458;-68
2022/08/28 09:08:40;;;;;;;23.60;5.70;;;;;;;27.62;43.52;98814.09;1667137;85;20970;-68
2022/08/28 09:11:20;;;;;;;28.32;6.60;;;;;;;27.70;42.56;98830.02;1663269;86;21827;-68
2022/08/28 09:13:55;;;;;;;26.27;6.97;;;;;;;27.77;41.95;98821.07;1666277;86;20974;-68
2022/08/28 09:16:31;;;;;;;36.42;8.35;;;;;;;27.85;42.60;98822.78;1667117;86;20976;-69
2022/08/28 09:18:58;;;;;;;28.15;6.75;;;;;;;27.91;42.52;98826.03;1638433;86;21104;-68
2022/08/28 09:21:31;;;;;;;26.90;6.95;;;;;;;27.96;42.00;98821.47;1657917;85;21018;-67
2022/08/28 09:24:01;;;;;;;38.50;7.40;;;;;;;28.02;41.93;98828.19;1655063;85;21144;-68
2022/08/28 09:26:28;;;;;;;23.02;6.47;;;;;;;28.08;42.10;98827.44;1655014;86;21645;-68
2022/08/28 09:29:08;;;;;;;23.70;6.92;;;;;;;28.18;41.87;98831.66;1655147;86;20994;-68
2022/08/28 09:31:38;;;;;;;20.05;5.33;;;;;;;28.25;41.64;98829.88;1651816;86;20991;-68
2022/08/28 09:34:27;;;;;;;18.50;5.05;;;;;;;28.32;38.70;98828.10;1655101;86;20982;-67
2022/08/28 09:36:55;;;;;;;19.82;6.03;;;;;;;28.35;38.84;98823.71;1653723;86;21263;-68
2022/08/28 09:39:30;;;;;;;30.35;7.22;;;;;;;28.35;38.37;98828.55;1655009;86;21026;-68
2022/08/28 09:45:19;;;;;;;18.85;6.37;;;;;;;28.29;40.88;98827.97;1655038;86;21030;-68
2022/08/28 09:47:55;;;;;;;20.92;6.12;;;;;;;28.15;41.59;98818.66;1630877;86;20982;-68
2022/08/28 09:50:35;;;;;;;21.50;6.78;;;;;;;28.03;41.79;98821.00;1655052;86;21145;-68
2022/08/28 09:53:13;;;;;;;18.60;5.85;;;;;;;27.96;41.46;98816.95;1655092;86;21066;-68
2022/08/28 09:56:11;;;;;;;16.80;5.85;;;;;;;27.96;41.78;98827.64;1655145;86;21086;-68
2022/08/28 09:58:46;;;;;;;18.10;6.22;;;;;;;28.02;41.28;98817.50;1651648;86;21058;-68
2022/08/28 10:01:31;;;;;;;16.52;6.00;;;;;;;28.13;40.21;98822.35;1654993;86;20999;-68
2022/08/28 10:04:38;;;;;;;16.12;6.35;;;;;;;28.24;39.43;98827.72;1654806;86;20992;-68
2022/08/28 10:07:49;;;;;;;19.35;5.85;;;;;;;28.32;39.31;98820.91;1647814;86;20976;-68
2022/08/28 10:10:45;;;;;;;12.75;5.03;;;;;;;28.42;38.24;98820.05;1655114;86;21205;-67
2022/08/28 10:13:32;;;;;;;18.15;5.25;;;;;;;28.54;36.32;98820.88;1651232;86;21074;-69
2022/08/28 10:16:14;;;;;;;20.82;4.90;;;;;;;28.68;36.17;98818.61;1628829;86;21121;-68
2022/08/28 10:18:57;;;;;;;18.60;4.17;;;;;;;28.75;34.43;98823.00;1655026;86;21152;-69
2022/08/28 10:21:47;;;;;;;12.80;3.98;;;;;;;28.76;33.75;98825.16;1662093;85;21415;-68
2022/08/28 10:24:38;;;;;;;9.48;3.95;;;;;;;28.78;32.44;98818.56;1666925;84;20982;-68
2022/08/28 10:27:30;;;;;;;14.78;3.67;;;;;;;28.84;31.82;98818.33;1667022;86;20990;-69
2022/08/28 10:30:10;;;;;;;15.60;4.50;;;;;;;28.94;31.26;98822.02;1667416;85;21024;-68
2022/08/28 10:32:54;;;;;;;9.55;3.62;;;;;;;29.05;31.14;98816.09;1666159;86;21271;-68
2022/08/28 10:35:48;;;;;;;15.75;4.05;;;;;;;29.12;31.14;98821.81;1666944;86;21057;-69
2022/08/28 10:38:29;;;;;;;12.35;4.15;;;;;;;29.18;31.59;98815.36;1666986;86;20998;-69
2022/08/28 10:41:22;;;;;;;13.83;3.92;;;;;;;29.28;31.57;98814.47;1666982;86;21042;-67
2022/08/28 10:43:52;;;;;;;13.93;4.62;;;;;;;29.37;31.19;98823.48;1667095;86;21009;-68
2022/08/28 10:46:45;;;;;;;21.77;4.12;;;;;;;29.42;30.56;98817.53;1721235;81;21417;-69
2022/08/28 10:49:36;;;;;;;12.82;4.03;;;;;;;29.43;30.61;98820.53;1725472;83;20973;-67
2022/08/28 10:52:21;;;;;;;10.13;4.03;;;;;;;29.47;30.30;98812.41;1725518;83;21051;-68
2022/08/28 10:55:05;;;;;;;11.38;4.00;;;;;;;29.53;30.60;98824.19;1725626;83;21069;-68
2022/08/28 10:57:50;;;;;;;13.75;4.42;;;;;;;29.56;30.67;98821.11;1725635;83;20961;-68
2022/08/28 11:00:20;;;;;;;11.70;3.87;;;;;;;29.55;30.71;98816.78;1725444;83;22004;-68
2022/08/28 11:03:01;;;;;;;12.40;4.33;;;;;;;29.54;30.71;98808.42;1725517;83;21568;-67
2022/08/28 11:05:35;;;;;;;12.00;3.85;;;;;;;29.51;30.94;98808.31;1725552;83;21073;-68
2022/08/28 11:08:06;;;;;;;8.40;3.45;;;;;;;29.54;30.86;98814.61;1725556;83;21025;-68
2022/08/28 11:10:48;;;;;;;7.97;3.02;;;;;;;29.54;29.71;98809.77;1746967;80;20913;-68
2022/08/28 11:13:50;;;;;;;10.98;3.72;;;;;;;29.52;28.13;98810.48;1790606;80;21246;-67
2022/08/28 11:16:30;;;;;;;7.47;3.25;;;;;;;29.51;28.46;98805.63;1790623;80;21029;-68
2022/08/28 11:19:17;;;;;;;10.75;3.12;;;;;;;29.56;27.95;98805.86;1790561;80;20957;-69
2022/08/28 11:22:20;;;;;;;8.25;3.40;;;;;;;29.56;27.60;98803.70;1790694;80;21391;-68
2022/08/28 11:25:09;;;;;;;7.85;2.80;;;;;;;29.56;27.37;98810.39;1739490;81;21040;-68
2022/08/28 11:27:38;;;;;;;7.35;3.80;;;;;;;29.58;27.88;98810.99;1759354;81;21313;-68
2022/08/28 11:30:14;;;;;;;5.08;2.98;;;;;;;29.59;26.76;98812.65;1759265;81;20924;-68
2022/08/28 11:33:00;;;;;;;6.60;3.30;;;;;;;29.59;26.35;98813.98;1759512;81;21045;-68
2022/08/28 11:35:41;;;;;;;10.25;3.50;;;;;;;29.56;27.03;98806.38;1759305;81;21472;-68
2022/08/28 11:38:10;;;;;;;8.48;3.92;;;;;;;29.57;27.36;98808.86;1759543;81;20933;-68
2022/08/28 11:40:53;;;;;;;4.58;3.12;;;;;;;29.58;26.96;98801.10;1759400;81;21152;-68
2022/08/28 11:43:29;;;;;;;8.65;3.80;;;;;;;29.64;27.41;98803.50;1759242;81;20965;-68
2022/08/28 11:46:01;;;;;;;9.83;3.40;;;;;;;29.63;27.05;98812.56;1739847;81;21532;-69
2022/08/28 11:48:41;;;;;;;11.43;3.40;;;;;;;29.60;27.65;98800.91;1728888;83;21032;-68
2022/08/28 11:51:19;;;;;;;10.90;3.40;;;;;;;29.60;27.42;98797.71;1728808;83;21008;-68
2022/08/28 11:54:37;;;;;;;10.48;3.70;;;;;;;29.68;27.62;98803.41;1728492;83;21083;-68